KTIX/TIX METAR and TAF weather

Enter ICAO airport designator
Station Type Date Time Source
KTIX METAR 2018/12/12 01:47 UTC NOAA

KTIX 120147Z 00000KT 7SM CLR 04/04 A3030


Station Type Date Time Source
KTIX Decoded METAR 2018/12/12 01:47 UTC NOAA

Titusville, FL, United States (KTIX) 28-31N 080-48W
Dec 11, 2018 - 08:47 PM EST / 2018.12.12 0147 UTC
Wind: Calm:0
Visibility: 7 mile(s):0
Sky conditions: clear
Temperature: 39 F (4 C)
Dew Point: 39 F (4 C)
Relative Humidity: 100%
Pressure (altimeter): 30.3 in. Hg (1026 hPa)
ob: KTIX 120147Z 00000KT 7SM CLR 04/04 A3030
cycle: 2

Station Type Date Time Source
KTIX TAF 2018/12/12 06:42 UTC NOAA

TAF KTIX 120539Z 1206/1306 30003KT P6SM SKC
FM121500 06005KT P6SM SKC
FM122330 VRB02KT P6SM FEW040 SCT250
AMD NOT SKED TIL 121200


Example: see airport list